Time;durP1;ratioP1;P1;durP2;ratioP2;P2;SDS_P1;SDS_P2;PMS_P1;PMS_P2;Temp;Humidity;BMP_temperature;BMP_pressure;BME280_temperature;BME280_humidity;BME280_pressure;Samples;Min_cycle;Max_cycle;Signal;HPM_P1;HPM_P2
2021/01/13 00:01:39;;;;;;;7.60;5.87;;;2.70;99.90;;;;;;5083894;28;20486;-72
2021/01/13 00:04:05;;;;;;;7.57;5.83;;;2.70;99.90;;;;;;5086691;27;20807;-69
2021/01/13 00:06:32;;;;;;;9.97;6.43;;;2.70;99.90;;;;;;5092545;28;20220;-69
2021/01/13 00:08:58;;;;;;;7.17;4.90;;;2.70;99.90;;;;;;5062753;28;20502;-69
2021/01/13 00:11:24;;;;;;;9.83;6.13;;;2.70;99.90;;;;;;5071653;28;20464;-70
2021/01/13 00:13:49;;;;;;;7.63;5.97;;;2.70;99.90;;;;;;5061009;28;20309;-71
2021/01/13 00:16:15;;;;;;;8.73;5.80;;;2.70;99.90;;;;;;5065329;27;20224;-69
2021/01/13 00:18:41;;;;;;;10.60;7.37;;;2.70;99.90;;;;;;5092656;27;20217;-70
2021/01/13 00:21:17;;;;;;;8.50;6.80;;;2.70;99.90;;;;;;5081332;28;20229;-70
2021/01/13 00:23:46;;;;;;;16.13;6.40;;;2.70;99.90;;;;;;5078032;28;20218;-69
2021/01/13 00:26:22;;;;;;;11.77;5.40;;;2.70;99.90;;;;;;5060813;28;20460;-70
2021/01/13 00:28:49;;;;;;;7.70;5.23;;;2.70;99.90;;;;;;5094629;28;20452;-70
2021/01/13 00:31:16;;;;;;;4.07;3.57;;;2.70;99.90;;;;;;5077696;28;20950;-69
2021/01/13 00:33:48;;;;;;;4.50;3.50;;;2.80;99.90;;;;;;5098440;27;20952;-69
2021/01/13 00:36:24;;;;;;;2.30;2.10;;;2.70;99.90;;;;;;5070627;28;20455;-69
2021/01/13 00:38:51;;;;;;;3.67;2.10;;;2.80;99.90;;;;;;5100153;28;20476;-70
2021/01/13 00:41:17;;;;;;;4.67;2.57;;;2.80;99.90;;;;;;5096385;28;20436;-69
2021/01/13 00:43:43;;;;;;;5.30;2.10;;;2.80;99.90;;;;;;5078118;28;20447;-71
2021/01/13 00:46:09;;;;;;;1.60;1.50;;;2.80;99.90;;;;;;5092211;28;20875;-70
2021/01/13 00:48:35;;;;;;;7.33;1.90;;;2.80;99.90;;;;;;5079876;28;20451;-69
2021/01/13 00:51:01;;;;;;;3.13;1.87;;;2.80;99.90;;;;;;5072297;28;20214;-71
2021/01/13 00:53:26;;;;;;;5.00;1.70;;;2.70;99.90;;;;;;5099210;27;20234;-71
2021/01/13 00:55:52;;;;;;;7.80;1.70;;;2.70;99.90;;;;;;5077047;28;20580;-69
2021/01/13 00:58:18;;;;;;;1.13;0.90;;;2.70;99.90;;;;;;5079427;28;20224;-69
2021/01/13 01:00:44;;;;;;;2.93;1.30;;;2.60;99.90;;;;;;5078739;28;20227;-70
2021/01/13 01:03:10;;;;;;;1.30;1.20;;;2.60;99.90;;;;;;5060200;28;20743;-69
2021/01/13 01:05:36;;;;;;;1.43;0.90;;;2.60;99.90;;;;;;5092484;28;20210;-70
2021/01/13 01:08:01;;;;;;;3.10;1.20;;;2.50;99.90;;;;;;5086387;28;20995;-70
2021/01/13 01:10:30;;;;;;;3.40;1.53;;;2.50;99.90;;;;;;5093377;28;20575;-70
2021/01/13 01:12:56;;;;;;;3.53;1.30;;;2.50;99.90;;;;;;5091435;28;20267;-71
2021/01/13 01:15:22;;;;;;;1.83;1.33;;;2.50;99.90;;;;;;5079583;28;20451;-71
2021/01/13 01:17:48;;;;;;;1.30;1.20;;;2.50;99.90;;;;;;5074668;28;20963;-69
2021/01/13 01:20:14;;;;;;;1.83;1.23;;;2.60;99.90;;;;;;5072849;28;20565;-70
2021/01/13 01:22:56;;;;;;;3.13;1.60;;;2.60;99.90;;;;;;5104789;27;20227;-69
2021/01/13 01:25:23;;;;;;;2.20;1.50;;;2.60;99.90;;;;;;5096384;27;20462;-70
2021/01/13 01:27:56;;;;;;;3.97;1.57;;;2.60;99.90;;;;;;5096099;28;20458;-69
2021/01/13 01:30:24;;;;;;;5.40;1.87;;;2.60;99.90;;;;;;5071536;27;20474;-69
2021/01/13 01:32:50;;;;;;;1.70;1.60;;;2.50;99.90;;;;;;5083612;28;20456;-69
2021/01/13 01:35:16;;;;;;;2.40;1.37;;;2.50;99.90;;;;;;5092468;28;20432;-69
2021/01/13 01:37:42;;;;;;;1.40;1.30;;;2.50;99.90;;;;;;5086667;28;20825;-69
2021/01/13 01:40:11;;;;;;;1.27;1.17;;;2.50;99.90;;;;;;5101937;27;20539;-69
2021/01/13 01:42:47;;;;;;;3.33;1.47;;;2.50;99.90;;;;;;5089658;28;20986;-69
2021/01/13 01:45:18;;;;;;;2.27;1.57;;;2.40;99.90;;;;;;5087148;28;20543;-70
2021/01/13 01:48:13;;;;;;;2.40;1.50;;;2.40;99.90;;;;;;5084321;28;20972;-69
2021/01/13 01:50:44;;;;;;;1.80;1.70;;;2.30;99.90;;;;;;5104766;27;20453;-69
2021/01/13 01:53:28;;;;;;;4.73;1.60;;;2.30;99.90;;;;;;5064822;28;20458;-68
2021/01/13 01:56:05;;;;;;;1.27;1.10;;;2.30;99.90;;;;;;5070125;28;20441;-69
2021/01/13 01:58:32;;;;;;;2.17;1.50;;;2.30;99.90;;;;;;5088103;28;20519;-69
2021/01/13 02:00:59;;;;;;;3.10;1.43;;;2.20;99.90;;;;;;5070738;28;20483;-69
2021/01/13 02:03:33;;;;;;;2.30;1.47;;;2.20;99.90;;;;;;5084263;28;20437;-69
2021/01/13 02:06:06;;;;;;;2.20;1.60;;;2.20;99.90;;;;;;5091582;28;20478;-68
2021/01/13 02:08:38;;;;;;;1.27;1.17;;;2.20;99.90;;;;;;5089824;28;20874;-69
2021/01/13 02:11:05;;;;;;;1.53;1.43;;;2.20;99.90;;;;;;5076725;27;20450;-70
2021/01/13 02:13:31;;;;;;;8.53;2.20;;;2.20;99.90;;;;;;5085010;27;20448;-69
2021/01/13 02:15:57;;;;;;;8.80;2.00;;;2.20;99.90;;;;;;5075308;28;20453;-69
2021/01/13 02:18:29;;;;;;;1.73;1.60;;;2.20;99.90;;;;;;5072461;27;20211;-67
2021/01/13 02:21:02;;;;;;;7.73;1.47;;;2.20;99.90;;;;;;5072483;28;20531;-68
2021/01/13 02:23:35;;;;;;;2.03;1.47;;;2.20;99.90;;;;;;5072870;28;20544;-69
2021/01/13 02:26:03;;;;;;;1.70;1.60;;;2.20;99.90;;;;;;5089810;28;20453;-68
2021/01/13 02:28:33;;;;;;;1.77;1.40;;;2.20;99.90;;;;;;5092782;28;20455;-68
2021/01/13 02:31:05;;;;;;;1.50;1.40;;;2.20;99.90;;;;;;5075190;28;20544;-67
2021/01/13 02:33:48;;;;;;;3.27;1.50;;;2.20;99.90;;;;;;5075522;28;20445;-68
2021/01/13 02:36:27;;;;;;;2.27;1.70;;;2.20;99.90;;;;;;5075750;28;20510;-69
2021/01/13 02:38:54;;;;;;;1.20;1.10;;;2.20;99.90;;;;;;5093573;28;20535;-68
2021/01/13 02:41:29;;;;;;;1.33;1.00;;;2.20;99.90;;;;;;5093146;28;20443;-69
2021/01/13 02:44:01;;;;;;;4.30;1.87;;;2.20;99.90;;;;;;5077512;28;20523;-69
2021/01/13 02:46:56;;;;;;;1.60;1.50;;;2.10;99.90;;;;;;5059407;28;20487;-68
2021/01/13 02:49:39;;;;;;;2.20;1.37;;;2.10;99.90;;;;;;5094394;27;20529;-67
2021/01/13 02:52:17;;;;;;;6.27;2.00;;;2.00;99.90;;;;;;5076721;28;20450;-68
2021/01/13 02:54:51;;;;;;;2.63;1.40;;;2.00;99.90;;;;;;5061528;28;20444;-68
2021/01/13 02:57:37;;;;;;;2.53;1.50;;;2.00;99.90;;;;;;5109206;28;20475;-68
2021/01/13 03:00:04;;;;;;;1.80;1.13;;;2.00;99.90;;;;;;5092234;28;20471;-68
2021/01/13 03:02:34;;;;;;;1.27;0.90;;;2.00;99.90;;;;;;5092507;28;20464;-68
2021/01/13 03:05:00;;;;;;;1.77;1.60;;;2.00;99.90;;;;;;5092212;28;20456;-68
2021/01/13 03:07:26;;;;;;;2.30;1.60;;;2.00;99.90;;;;;;5092507;28;20463;-68
2021/01/13 03:09:57;;;;;;;1.27;1.17;;;2.00;99.90;;;;;;5092074;28;20218;-68
2021/01/13 03:12:27;;;;;;;5.70;1.60;;;2.00;99.90;;;;;;5075361;28;20509;-68
2021/01/13 03:14:57;;;;;;;1.53;1.43;;;2.00;99.90;;;;;;5091704;28;21064;-69
2021/01/13 03:17:31;;;;;;;2.00;1.00;;;2.00;99.90;;;;;;5075145;28;20464;-68
2021/01/13 03:20:16;;;;;;;1.40;1.30;;;2.00;99.90;;;;;;5074733;28;20563;-68
2021/01/13 03:23:06;;;;;;;1.40;1.30;;;1.90;99.90;;;;;;5092549;28;20463;-68
2021/01/13 03:25:46;;;;;;;2.27;2.07;;;1.90;99.90;;;;;;5073890;28;20449;-68
2021/01/13 03:28:16;;;;;;;2.43;1.27;;;1.90;99.90;;;;;;5093548;28;20480;-69
2021/01/13 03:30:42;;;;;;;0.90;0.90;;;1.90;99.90;;;;;;5094943;28;20553;-69
2021/01/13 03:33:20;;;;;;;1.50;1.40;;;1.90;99.90;;;;;;5079006;28;20505;-68
2021/01/13 03:35:57;;;;;;;1.40;1.30;;;1.80;99.90;;;;;;5060287;28;20465;-68
2021/01/13 03:38:26;;;;;;;2.03;1.20;;;1.80;99.90;;;;;;5118903;27;20447;-68
2021/01/13 03:41:01;;;;;;;2.07;1.33;;;1.80;99.90;;;;;;5089232;28;20479;-69
2021/01/13 03:43:36;;;;;;;1.80;1.60;;;1.80;99.90;;;;;;5117809;27;20483;-68
2021/01/13 03:46:07;;;;;;;3.50;1.60;;;1.90;99.90;;;;;;5078756;28;20519;-69
2021/01/13 03:48:48;;;;;;;1.03;0.90;;;1.90;99.90;;;;;;5079412;28;20491;-69
2021/01/13 03:51:25;;;;;;;1.60;1.37;;;1.80;99.90;;;;;;5095646;28;20448;-67
2021/01/13 03:53:52;;;;;;;3.40;1.73;;;1.80;99.90;;;;;;5085514;27;20448;-68
2021/01/13 03:56:26;;;;;;;2.73;1.13;;;1.80;99.90;;;;;;5070139;28;20445;-68
2021/01/13 03:58:53;;;;;;;3.10;1.20;;;1.80;99.90;;;;;;5120402;27;20452;-68
2021/01/13 04:01:22;;;;;;;2.03;1.83;;;1.80;99.90;;;;;;5089997;28;20976;-68
2021/01/13 04:04:15;;;;;;;2.00;1.60;;;1.80;99.90;;;;;;5096345;28;20448;-68
2021/01/13 04:06:43;;;;;;;3.63;2.40;;;1.70;99.90;;;;;;5078704;28;20451;-69
2021/01/13 04:09:11;;;;;;;1.53;1.43;;;1.70;99.90;;;;;;5078642;28;20448;-68
2021/01/13 04:11:37;;;;;;;6.67;1.77;;;1.70;99.90;;;;;;5078389;28;20460;-71
2021/01/13 04:14:04;;;;;;;2.93;1.43;;;1.70;99.90;;;;;;5082906;28;20490;-69
2021/01/13 04:16:38;;;;;;;1.93;1.80;;;1.70;99.90;;;;;;5078522;28;20528;-68
2021/01/13 04:19:07;;;;;;;6.93;1.80;;;1.70;99.90;;;;;;5077489;28;20462;-68
2021/01/13 04:21:33;;;;;;;1.97;1.57;;;1.70;99.90;;;;;;5081849;27;20903;-68
2021/01/13 04:24:02;;;;;;;2.57;1.73;;;1.70;99.90;;;;;;5079533;28;20440;-68
2021/01/13 04:26:28;;;;;;;2.20;1.80;;;1.70;99.90;;;;;;5108391;28;20211;-68
2021/01/13 04:28:55;;;;;;;3.60;2.00;;;1.70;99.90;;;;;;5093368;28;20468;-68
2021/01/13 04:31:22;;;;;;;1.53;1.40;;;1.70;99.90;;;;;;5078413;28;20449;-68
2021/01/13 04:33:48;;;;;;;1.70;1.60;;;1.70;99.90;;;;;;5060931;28;20475;-69
2021/01/13 04:36:15;;;;;;;7.97;1.60;;;1.70;99.90;;;;;;5093608;27;20463;-69
2021/01/13 04:38:41;;;;;;;4.53;1.80;;;1.70;99.90;;;;;;5096891;28;20217;-68
2021/01/13 04:41:17;;;;;;;2.57;1.90;;;1.70;99.90;;;;;;5105528;28;20480;-69
2021/01/13 04:43:52;;;;;;;1.77;1.67;;;1.70;99.90;;;;;;5105667;27;20526;-68
2021/01/13 04:46:29;;;;;;;1.50;1.40;;;1.70;99.90;;;;;;5100674;28;20452;-67
2021/01/13 04:49:01;;;;;;;1.67;1.57;;;1.60;99.90;;;;;;5093949;28;20466;-68
2021/01/13 04:51:31;;;;;;;3.90;2.30;;;1.60;99.90;;;;;;5077496;28;20448;-68
2021/01/13 04:53:57;;;;;;;3.70;1.57;;;1.60;99.90;;;;;;5061391;28;20466;-68
2021/01/13 04:56:25;;;;;;;2.00;1.53;;;1.60;99.90;;;;;;5059268;28;22007;-68
2021/01/13 04:59:29;;;;;;;1.97;1.80;;;1.50;99.90;;;;;;5069934;28;20515;-69
2021/01/13 05:01:58;;;;;;;2.50;1.93;;;1.50;99.90;;;;;;4992474;28;20449;-69
2021/01/13 05:04:53;;;;;;;2.23;1.93;;;1.50;99.90;;;;;;5009694;28;20473;-68
2021/01/13 05:07:34;;;;;;;1.53;1.43;;;1.50;99.90;;;;;;5059336;28;20492;-69
2021/01/13 05:10:25;;;;;;;2.23;1.83;;;1.50;99.90;;;;;;5074053;28;20441;-68
2021/01/13 05:12:56;;;;;;;1.57;1.47;;;1.50;99.90;;;;;;5073963;28;20494;-68
2021/01/13 05:15:22;;;;;;;3.43;1.70;;;1.50;99.90;;;;;;5084109;28;20460;-69
2021/01/13 05:18:07;;;;;;;1.93;1.47;;;1.50;99.90;;;;;;5072006;28;20487;-68
2021/01/13 05:20:38;;;;;;;2.17;1.60;;;1.50;99.90;;;;;;5093115;28;20221;-68
2021/01/13 05:23:06;;;;;;;2.10;1.90;;;1.50;99.90;;;;;;5095250;28;20474;-67
2021/01/13 05:25:45;;;;;;;8.33;1.70;;;1.50;99.90;;;;;;5092021;28;20450;-68
2021/01/13 05:28:15;;;;;;;5.43;2.40;;;1.50;99.90;;;;;;5094347;28;20444;-68
2021/01/13 05:30:46;;;;;;;7.70;3.90;;;1.50;99.90;;;;;;5077402;28;20483;-68
2021/01/13 05:33:15;;;;;;;4.13;2.77;;;1.50;99.90;;;;;;5061401;28;20457;-68
2021/01/13 05:35:44;;;;;;;2.63;2.27;;;1.40;99.90;;;;;;5086695;27;20463;-68
2021/01/13 05:38:15;;;;;;;2.97;1.83;;;1.40;99.90;;;;;;5082589;28;20481;-69
2021/01/13 05:40:50;;;;;;;5.13;2.10;;;1.40;99.90;;;;;;5103284;27;20468;-68
2021/01/13 05:43:18;;;;;;;2.17;1.80;;;1.40;99.90;;;;;;5096856;28;20815;-69
2021/01/13 05:45:44;;;;;;;1.83;1.50;;;1.40;99.90;;;;;;5084902;28;20455;-68
2021/01/13 05:48:15;;;;;;;3.10;1.60;;;1.40;99.90;;;;;;5072249;28;20458;-70
2021/01/13 05:50:41;;;;;;;4.67;1.60;;;1.40;99.90;;;;;;5100939;28;20903;-69
2021/01/13 05:53:07;;;;;;;1.70;1.60;;;1.30;99.90;;;;;;5093352;28;21040;-68
2021/01/13 05:55:33;;;;;;;3.67;2.00;;;1.30;99.90;;;;;;5078958;28;20505;-70
2021/01/13 05:58:01;;;;;;;2.03;1.93;;;1.30;99.90;;;;;;5101588;28;20456;-70
2021/01/13 06:00:32;;;;;;;2.50;2.30;;;1.30;99.90;;;;;;5080878;28;20485;-68
2021/01/13 06:02:59;;;;;;;2.13;2.00;;;1.30;99.90;;;;;;5066972;28;20514;-70
2021/01/13 06:05:26;;;;;;;3.10;1.90;;;1.30;99.90;;;;;;5114225;28;20517;-68
2021/01/13 06:07:53;;;;;;;3.77;2.43;;;1.30;99.90;;;;;;5071168;28;20453;-70
2021/01/13 06:10:19;;;;;;;2.47;2.27;;;1.30;99.90;;;;;;5081781;28;20530;-69
2021/01/13 06:12:56;;;;;;;1.70;1.60;;;1.20;99.90;;;;;;5097867;28;20503;-69
2021/01/13 06:15:24;;;;;;;2.13;1.80;;;1.20;99.90;;;;;;5115508;28;20520;-71
2021/01/13 06:17:52;;;;;;;2.70;1.93;;;1.20;99.90;;;;;;5083897;28;20457;-70
2021/01/13 06:20:25;;;;;;;1.80;1.70;;;1.20;99.90;;;;;;5079723;28;20450;-69
2021/01/13 06:22:52;;;;;;;2.07;1.87;;;1.20;99.90;;;;;;5072935;28;20473;-71
2021/01/13 06:25:24;;;;;;;3.07;1.63;;;1.20;99.90;;;;;;5080801;28;20513;-70
2021/01/13 06:27:58;;;;;;;2.20;1.40;;;1.20;99.90;;;;;;5084698;28;20453;-70
2021/01/13 06:30:29;;;;;;;9.43;2.70;;;1.20;99.90;;;;;;5098834;28;20490;-70
2021/01/13 06:33:02;;;;;;;5.73;2.33;;;1.10;99.90;;;;;;5107910;27;20480;-70
2021/01/13 06:35:43;;;;;;;2.80;2.00;;;1.10;99.90;;;;;;5095769;27;20515;-71
2021/01/13 06:38:35;;;;;;;2.03;1.83;;;1.10;99.90;;;;;;5088243;28;20464;-71
2021/01/13 06:41:03;;;;;;;1.43;1.30;;;1.10;99.90;;;;;;5083339;28;20522;-71
2021/01/13 06:43:29;;;;;;;1.97;1.63;;;1.10;99.90;;;;;;5084108;28;20468;-70
2021/01/13 06:45:57;;;;;;;1.83;1.57;;;1.10;99.90;;;;;;5083092;28;20449;-72
2021/01/13 06:48:24;;;;;;;2.07;1.73;;;1.20;99.90;;;;;;5067667;28;20456;-71
2021/01/13 06:50:56;;;;;;;2.80;1.17;;;1.20;99.90;;;;;;5084171;28;20452;-70
2021/01/13 06:53:22;;;;;;;3.47;1.57;;;1.20;99.90;;;;;;5077826;28;20515;-68
2021/01/13 06:55:50;;;;;;;2.10;1.60;;;1.10;99.90;;;;;;5086601;27;20451;-72
2021/01/13 06:58:18;;;;;;;2.97;2.00;;;1.10;99.90;;;;;;5112309;27;20443;-72
2021/01/13 07:00:46;;;;;;;2.47;2.27;;;1.10;99.90;;;;;;5102694;28;20493;-71
2021/01/13 07:03:30;;;;;;;2.27;1.97;;;1.10;99.90;;;;;;5118733;27;20451;-72
2021/01/13 07:05:59;;;;;;;4.20;2.70;;;1.10;99.90;;;;;;5056802;28;20510;-73
2021/01/13 07:08:24;;;;;;;3.33;2.90;;;1.10;99.90;;;;;;5087289;28;20461;-72
2021/01/13 07:11:04;;;;;;;3.50;2.80;;;1.10;99.90;;;;;;5120940;27;20463;-72
2021/01/13 07:13:33;;;;;;;3.03;2.20;;;1.10;99.90;;;;;;5079134;28;20233;-71
2021/01/13 07:16:00;;;;;;;4.10;2.20;;;1.10;99.90;;;;;;5092450;28;20452;-71
2021/01/13 07:18:27;;;;;;;2.97;2.00;;;1.10;99.90;;;;;;5086843;28;20451;-69
2021/01/13 07:20:54;;;;;;;3.00;2.37;;;1.10;99.90;;;;;;5080725;28;20996;-68
2021/01/13 07:23:21;;;;;;;2.63;1.77;;;1.10;99.90;;;;;;5093523;28;20451;-69
2021/01/13 07:25:50;;;;;;;2.83;2.47;;;1.10;99.90;;;;;;5060128;28;20464;-70
2021/01/13 07:28:17;;;;;;;5.53;2.20;;;1.10;99.90;;;;;;5074440;28;20444;-68
2021/01/13 07:30:44;;;;;;;1.93;1.73;;;1.10;99.90;;;;;;5073841;28;20467;-71
2021/01/13 07:33:12;;;;;;;4.87;3.03;;;1.10;99.90;;;;;;5077300;28;20448;-68
2021/01/13 07:35:46;;;;;;;19.93;7.13;;;1.10;99.90;;;;;;5095729;28;20484;-71
2021/01/13 07:38:18;;;;;;;8.10;4.50;;;1.10;99.90;;;;;;5088194;28;20526;-70
2021/01/13 07:41:40;;;;;;;5.10;2.97;;;1.10;99.90;;;;;;5059343;28;20463;-71
2021/01/13 07:44:39;;;;;;;12.70;2.87;;;1.10;99.90;;;;;;5042903;28;20466;-71
2021/01/13 07:47:26;;;;;;;3.10;2.80;;;1.10;99.90;;;;;;5074909;28;20468;-71
2021/01/13 07:50:08;;;;;;;4.20;3.20;;;1.10;99.90;;;;;;5068422;28;20457;-71
2021/01/13 07:52:42;;;;;;;6.77;4.70;;;1.10;99.90;;;;;;5088720;28;20846;-72
2021/01/13 07:55:23;;;;;;;15.40;9.20;;;1.10;99.90;;;;;;5071440;28;20457;-72
2021/01/13 07:57:50;;;;;;;12.43;8.13;;;1.10;99.90;;;;;;5087178;28;20476;-70
2021/01/13 08:00:33;;;;;;;11.13;7.87;;;1.10;99.90;;;;;;5074972;28;21165;-70
2021/01/13 08:03:17;;;;;;;9.53;6.37;;;1.10;99.90;;;;;;5074366;28;20448;-69
2021/01/13 08:06:11;;;;;;;5.10;4.20;;;1.10;99.90;;;;;;5091334;28;20449;-70
2021/01/13 08:09:08;;;;;;;7.03;5.10;;;1.10;99.90;;;;;;5081025;28;20551;-70
2021/01/13 08:11:37;;;;;;;6.60;5.50;;;1.10;99.90;;;;;;5086980;27;20440;-70
2021/01/13 08:14:25;;;;;;;9.57;5.40;;;1.00;99.90;;;;;;5121251;27;20468;-69
2021/01/13 08:17:16;;;;;;;7.83;5.63;;;1.10;99.90;;;;;;5095061;28;20457;-70
2021/01/13 08:20:04;;;;;;;9.10;4.73;;;1.10;99.90;;;;;;5106572;28;20540;-69
2021/01/13 08:22:30;;;;;;;6.63;4.87;;;1.10;99.90;;;;;;5094575;28;20534;-70
2021/01/13 08:25:09;;;;;;;5.33;4.73;;;1.00;99.90;;;;;;5073637;28;20459;-70
2021/01/13 08:27:35;;;;;;;8.17;5.10;;;1.00;99.90;;;;;;5073636;28;20512;-69
2021/01/13 08:30:02;;;;;;;8.40;5.17;;;1.00;99.90;;;;;;5048286;27;20464;-70
2021/01/13 08:32:31;;;;;;;4.67;3.93;;;1.00;99.90;;;;;;5085084;27;20487;-69
2021/01/13 08:35:04;;;;;;;10.43;5.03;;;1.00;99.90;;;;;;5091437;27;20510;-69
2021/01/13 08:37:35;;;;;;;5.10;3.50;;;1.00;99.90;;;;;;5110867;27;20469;-71
2021/01/13 08:40:39;;;;;;;9.03;4.00;;;1.00;99.90;;;;;;5106264;28;20605;-70
2021/01/13 08:43:13;;;;;;;6.50;4.27;;;1.00;99.90;;;;;;5008302;28;20463;-68
2021/01/13 08:45:42;;;;;;;6.63;3.87;;;1.10;99.90;;;;;;5078328;28;20459;-70
2021/01/13 08:48:11;;;;;;;6.67;3.90;;;1.10;99.90;;;;;;5082181;28;20449;-70
2021/01/13 08:50:38;;;;;;;4.27;3.87;;;1.10;99.90;;;;;;5102171;28;20459;-70
2021/01/13 08:53:05;;;;;;;5.33;4.60;;;1.10;99.90;;;;;;5058692;28;20908;-69
2021/01/13 08:55:32;;;;;;;7.57;4.93;;;1.20;99.90;;;;;;5106986;28;20459;-69
2021/01/13 08:58:08;;;;;;;7.70;4.67;;;1.10;99.90;;;;;;5084773;28;20468;-71
2021/01/13 09:00:37;;;;;;;5.43;4.30;;;1.20;99.90;;;;;;5068659;28;20556;-68
2021/01/13 09:03:11;;;;;;;5.90;4.00;;;1.20;99.90;;;;;;5068239;28;20837;-70
2021/01/13 09:05:39;;;;;;;5.03;4.00;;;1.20;99.90;;;;;;5086147;28;20452;-69
2021/01/13 09:08:06;;;;;;;4.53;3.10;;;1.20;99.90;;;;;;5113929;27;20483;-70
2021/01/13 09:10:49;;;;;;;5.90;2.90;;;1.30;99.90;;;;;;5104056;28;20456;-71
2021/01/13 09:13:31;;;;;;;3.77;2.80;;;1.30;99.90;;;;;;5121361;28;20451;-70
2021/01/13 09:16:18;;;;;;;3.70;2.60;;;1.30;99.90;;;;;;5086534;28;20885;-71
2021/01/13 09:18:46;;;;;;;2.83;2.20;;;1.30;99.90;;;;;;5090100;27;20456;-70
2021/01/13 09:21:15;;;;;;;2.43;2.23;;;1.40;99.90;;;;;;5088328;28;20460;-71
2021/01/13 09:23:53;;;;;;;2.80;2.10;;;1.40;99.90;;;;;;5090546;28;20509;-70
2021/01/13 09:26:21;;;;;;;4.30;2.60;;;1.40;99.90;;;;;;5089960;28;20456;-71
2021/01/13 09:29:09;;;;;;;4.30;2.77;;;1.40;99.90;;;;;;5087804;27;20524;-69
2021/01/13 09:31:38;;;;;;;2.67;2.17;;;1.40;99.90;;;;;;5090554;28;20457;-69
2021/01/13 09:34:05;;;;;;;6.20;3.20;;;1.40;99.90;;;;;;5090305;28;20484;-71
2021/01/13 09:36:55;;;;;;;3.67;2.43;;;1.50;99.90;;;;;;5102948;28;20465;-71
2021/01/13 09:39:34;;;;;;;3.70;2.60;;;1.50;99.90;;;;;;5100571;28;20600;-71
2021/01/13 09:42:07;;;;;;;4.33;3.10;;;1.60;99.90;;;;;;5074436;28;20467;-71
2021/01/13 09:44:35;;;;;;;8.07;5.10;;;1.60;99.90;;;;;;5075508;28;20961;-68
2021/01/13 09:47:23;;;;;;;14.83;8.77;;;1.70;99.90;;;;;;5110855;27;20447;-71
2021/01/13 09:49:50;;;;;;;9.63;6.97;;;1.70;99.90;;;;;;5108870;28;20472;-69
2021/01/13 09:52:16;;;;;;;4.93;4.10;;;1.80;99.90;;;;;;5071711;28;20436;-71
2021/01/13 09:54:50;;;;;;;2.70;2.47;;;1.80;99.90;;;;;;5082876;28;20460;-71
2021/01/13 09:57:16;;;;;;;3.33;2.00;;;1.90;99.90;;;;;;5087426;28;20234;-70
2021/01/13 09:59:58;;;;;;;13.50;3.60;;;2.00;99.90;;;;;;5077872;28;20453;-68
2021/01/13 10:02:24;;;;;;;3.50;3.00;;;2.00;99.90;;;;;;5110942;28;20453;-70
2021/01/13 10:04:50;;;;;;;34.17;17.50;;;2.10;99.90;;;;;;5057656;28;20454;-68
2021/01/13 10:07:21;;;;;;;24.43;13.03;;;2.10;99.90;;;;;;5071282;28;20227;-71
2021/01/13 10:09:48;;;;;;;15.33;6.40;;;2.20;99.90;;;;;;5085411;28;20465;-71
2021/01/13 10:12:18;;;;;;;10.80;5.43;;;2.30;99.90;;;;;;5091367;28;20615;-69
2021/01/13 10:14:52;;;;;;;10.10;5.73;;;2.30;99.90;;;;;;5082024;28;20457;-70
2021/01/13 10:17:25;;;;;;;12.40;6.23;;;2.40;99.90;;;;;;5073033;28;20445;-70
2021/01/13 10:19:51;;;;;;;7.70;4.57;;;2.50;99.90;;;;;;5093040;28;20475;-71
2021/01/13 10:22:19;;;;;;;5.83;4.00;;;2.50;99.90;;;;;;5079562;28;20533;-71
2021/01/13 10:24:45;;;;;;;15.07;7.60;;;2.60;99.90;;;;;;5084340;27;20527;-71
2021/01/13 10:27:11;;;;;;;12.00;9.23;;;2.70;99.90;;;;;;5059759;28;20561;-70
2021/01/13 10:29:43;;;;;;;4.63;3.97;;;2.70;99.90;;;;;;5070356;28;20351;-71
2021/01/13 10:32:09;;;;;;;3.17;2.47;;;2.80;99.90;;;;;;5068416;28;20243;-71
2021/01/13 10:34:35;;;;;;;3.47;2.80;;;2.80;99.90;;;;;;5062657;28;20448;-71
2021/01/13 10:37:01;;;;;;;5.53;3.93;;;2.90;99.90;;;;;;5095767;28;20469;-70
2021/01/13 10:39:28;;;;;;;5.37;4.10;;;3.00;99.90;;;;;;5082097;27;20279;-71
2021/01/13 10:42:04;;;;;;;3.40;3.10;;;3.00;99.90;;;;;;5090982;28;20813;-71
2021/01/13 10:44:31;;;;;;;3.20;2.60;;;3.10;99.90;;;;;;5101315;28;20456;-70
2021/01/13 10:47:01;;;;;;;3.40;1.83;;;3.20;99.90;;;;;;5046803;28;20536;-69
2021/01/13 10:49:28;;;;;;;2.60;1.90;;;3.20;99.90;;;;;;5041280;28;20459;-72
2021/01/13 10:52:05;;;;;;;2.73;2.00;;;3.20;99.90;;;;;;5080805;28;20445;-69
2021/01/13 10:54:33;;;;;;;3.97;2.10;;;3.30;99.90;;;;;;5076177;28;20444;-69
2021/01/13 10:57:05;;;;;;;2.33;2.00;;;3.30;99.90;;;;;;5074859;28;20448;-70
2021/01/13 10:59:32;;;;;;;3.27;2.10;;;3.30;99.90;;;;;;5092580;28;20468;-70
2021/01/13 11:02:03;;;;;;;2.13;1.93;;;3.40;99.90;;;;;;5064434;28;20444;-70
2021/01/13 11:04:31;;;;;;;1.80;1.70;;;3.40;99.90;;;;;;5082942;27;20955;-68
2021/01/13 11:07:08;;;;;;;1.83;1.27;;;3.40;99.90;;;;;;5106076;27;20499;-68
2021/01/13 11:09:37;;;;;;;3.60;1.90;;;3.50;99.90;;;;;;5094477;27;20450;-68
2021/01/13 11:12:03;;;;;;;3.20;1.83;;;3.60;99.90;;;;;;5069982;28;20461;-68
2021/01/13 11:14:41;;;;;;;3.33;2.00;;;3.60;99.90;;;;;;5056248;28;20491;-68
2021/01/13 11:17:11;;;;;;;2.40;2.00;;;3.60;99.90;;;;;;5091747;28;20460;-68
2021/01/13 11:19:43;;;;;;;3.17;2.40;;;3.70;99.90;;;;;;5054981;28;20479;-68
2021/01/13 11:22:10;;;;;;;1.90;1.80;;;3.70;99.90;;;;;;5076861;28;20448;-69
2021/01/13 11:24:50;;;;;;;1.73;1.60;;;3.70;99.90;;;;;;5077029;28;20456;-68
2021/01/13 11:27:21;;;;;;;4.50;2.17;;;3.70;99.90;;;;;;5092472;28;20468;-68
2021/01/13 11:29:54;;;;;;;2.67;2.47;;;3.70;99.90;;;;;;5077078;28;20460;-68
2021/01/13 11:32:25;;;;;;;1.70;1.53;;;3.70;99.90;;;;;;5056478;28;20453;-69
2021/01/13 11:34:55;;;;;;;2.00;1.80;;;3.70;99.90;;;;;;5058475;28;20449;-69
2021/01/13 11:37:22;;;;;;;4.10;1.93;;;3.80;99.90;;;;;;5075230;28;20460;-68
2021/01/13 11:40:16;;;;;;;3.70;1.70;;;3.70;99.90;;;;;;5059910;28;20499;-70
2021/01/13 11:43:33;;;;;;;1.93;1.80;;;3.70;99.90;;;;;;5113572;28;20944;-70
2021/01/13 11:46:16;;;;;;;2.57;1.73;;;3.70;99.90;;;;;;5054741;28;20461;-69
2021/01/13 11:49:15;;;;;;;3.20;1.50;;;3.70;99.90;;;;;;5078141;28;20566;-70
2021/01/13 11:51:54;;;;;;;1.80;1.37;;;3.70;99.90;;;;;;5060719;28;20462;-70
2021/01/13 11:54:31;;;;;;;1.87;1.67;;;3.60;99.90;;;;;;5077748;28;20455;-69
2021/01/13 11:57:27;;;;;;;2.20;1.57;;;3.60;99.90;;;;;;5076112;28;20477;-70
2021/01/13 12:00:24;;;;;;;2.33;1.70;;;3.60;99.90;;;;;;5087306;28;20532;-69
2021/01/13 12:03:01;;;;;;;4.37;2.77;;;3.60;99.90;;;;;;5095029;28;20460;-70
2021/01/13 12:05:35;;;;;;;45.03;17.00;;;3.60;99.90;;;;;;5067815;28;20441;-69
2021/01/13 12:08:06;;;;;;;46.10;19.57;;;3.60;99.90;;;;;;5081215;28;20491;-69
2021/01/13 12:10:41;;;;;;;39.03;16.03;;;3.60;99.90;;;;;;5098281;28;21033;-69
2021/01/13 12:13:15;;;;;;;45.20;18.37;;;3.60;99.90;;;;;;5094108;28;20507;-68
2021/01/13 12:16:05;;;;;;;18.17;9.50;;;3.60;99.90;;;;;;5083733;27;20969;-68
2021/01/13 12:18:42;;;;;;;11.47;6.67;;;3.60;99.90;;;;;;5097624;28;20452;-68
2021/01/13 12:21:13;;;;;;;17.63;10.20;;;3.60;99.90;;;;;;5095044;28;20549;-68
2021/01/13 12:23:40;;;;;;;57.13;24.97;;;3.60;99.90;;;;;;5081152;28;20453;-67
2021/01/13 12:26:32;;;;;;;38.87;21.50;;;3.60;99.90;;;;;;5094634;28;20454;-67
2021/01/13 12:29:01;;;;;;;11.83;7.20;;;3.60;99.90;;;;;;5042986;28;20467;-67
2021/01/13 12:31:53;;;;;;;8.00;5.83;;;3.60;99.90;;;;;;5103630;27;20458;-67
2021/01/13 12:34:26;;;;;;;10.93;6.10;;;3.60;99.90;;;;;;5054038;28;20447;-67
2021/01/13 12:36:55;;;;;;;8.73;4.13;;;3.60;99.90;;;;;;5068581;28;20453;-67
2021/01/13 12:39:28;;;;;;;5.07;4.23;;;3.60;99.90;;;;;;5088190;28;20471;-67
2021/01/13 12:41:55;;;;;;;4.80;3.60;;;3.60;99.90;;;;;;5083818;27;20440;-67
2021/01/13 12:44:22;;;;;;;4.40;3.20;;;3.60;99.90;;;;;;5082418;28;20472;-67
2021/01/13 12:46:53;;;;;;;5.57;3.67;;;3.60;99.90;;;;;;5057816;28;20460;-68
2021/01/13 12:49:20;;;;;;;4.70;3.50;;;3.60;99.90;;;;;;5108430;28;20467;-68
2021/01/13 12:52:01;;;;;;;4.13;3.53;;;3.60;99.90;;;;;;5072044;28;20456;-68
2021/01/13 12:54:27;;;;;;;3.50;3.10;;;3.60;99.90;;;;;;5068993;28;20471;-67
2021/01/13 12:56:53;;;;;;;5.20;3.80;;;3.60;99.90;;;;;;5080835;28;20529;-67
2021/01/13 12:59:19;;;;;;;12.47;4.23;;;3.60;99.90;;;;;;5057362;28;20513;-67
2021/01/13 13:01:47;;;;;;;7.10;3.80;;;3.60;99.90;;;;;;5094515;28;20450;-66
2021/01/13 13:04:14;;;;;;;5.37;2.67;;;3.60;99.90;;;;;;5077563;28;20807;-67
2021/01/13 13:06:40;;;;;;;4.50;3.27;;;3.60;99.90;;;;;;5059754;28;20862;-67
2021/01/13 13:09:10;;;;;;;5.43;4.07;;;3.60;99.90;;;;;;5080016;27;20508;-69
2021/01/13 13:11:36;;;;;;;6.97;4.70;;;3.70;99.90;;;;;;5107622;28;20456;-68
2021/01/13 13:14:02;;;;;;;10.53;7.20;;;3.70;99.90;;;;;;5051975;28;20452;-68
2021/01/13 13:16:28;;;;;;;11.27;6.10;;;3.70;99.90;;;;;;5093240;28;20558;-69
2021/01/13 13:18:55;;;;;;;10.00;6.47;;;3.70;99.90;;;;;;5073494;28;20480;-68
2021/01/13 13:21:22;;;;;;;17.57;10.57;;;3.70;99.90;;;;;;5072120;28;20523;-68
2021/01/13 13:23:49;;;;;;;20.23;11.43;;;3.70;99.90;;;;;;5112202;28;20548;-67